createdAt,value
2022-08-02T00:05:33.393Z,21.5
2022-08-02T00:40:33.400Z,21.4
2022-08-02T00:46:02.119Z,21.5
2022-08-02T00:55:33.405Z,21.5
2022-08-02T01:05:46.943Z,21.4
2022-08-02T01:10:33.403Z,21.4
2022-08-02T01:15:35.953Z,21.4
2022-08-02T01:20:33.410Z,21.5
2022-08-02T01:25:33.411Z,21.4
2022-08-02T01:35:50.575Z,21.5
2022-08-02T01:40:33.407Z,21.5
2022-08-02T02:10:33.421Z,21.5
2022-08-02T02:20:33.425Z,21.5
2022-08-02T02:25:36.502Z,21.5
2022-08-02T02:35:33.414Z,21.4
2022-08-02T02:40:33.435Z,21.5
2022-08-02T02:50:33.497Z,21.5
2022-08-02T02:55:33.518Z,21.5
2022-08-02T03:05:33.425Z,21.5
2022-08-02T03:10:33.424Z,21.4
2022-08-02T03:15:33.427Z,21.5
2022-08-02T03:20:33.433Z,21.5
2022-08-02T03:30:33.439Z,21.5
2022-08-02T03:35:33.435Z,21.5
2022-08-02T03:55:33.444Z,21.3
2022-08-02T04:05:33.461Z,21.3
2022-08-02T04:15:33.452Z,21.3
2022-08-02T04:20:33.463Z,21.3
2022-08-02T04:25:38.183Z,21.4
2022-08-02T04:35:33.489Z,21.3
2022-08-02T04:45:33.459Z,21.3
2022-08-02T04:50:33.473Z,21.2
2022-08-02T05:10:33.468Z,21.2
2022-08-02T05:15:33.640Z,21.1
2022-08-02T05:20:33.484Z,21.2
2022-08-02T05:30:33.482Z,21.2
2022-08-02T05:40:33.489Z,21.2
2022-08-02T05:45:33.487Z,21.3
2022-08-02T05:55:33.480Z,21.3
2022-08-02T06:05:33.475Z,21.3
2022-08-02T06:10:33.491Z,21.2
2022-08-02T06:15:33.491Z,21.1
2022-08-02T06:20:33.496Z,20.9
2022-08-02T06:40:33.489Z,21.1
2022-08-02T06:45:33.499Z,21.4
2022-08-02T06:50:33.498Z,21.4
2022-08-02T06:55:33.509Z,21.2
2022-08-02T07:00:33.514Z,21.1
2022-08-02T07:10:33.513Z,21.4
2022-08-02T07:15:33.515Z,21.4
2022-08-02T07:26:02.746Z,21.2
2022-08-02T07:30:33.683Z,21.3
2022-08-02T07:35:33.526Z,21.2
2022-08-02T07:40:33.520Z,21.1
2022-08-02T07:55:40.033Z,21.5
2022-08-02T08:00:33.530Z,21.5
2022-08-02T08:10:33.521Z,21.3
2022-08-02T08:15:33.530Z,21.3
2022-08-02T08:20:33.534Z,21.4
2022-08-02T08:30:33.530Z,21.5
2022-08-02T08:40:33.525Z,21.3
2022-08-02T08:45:33.544Z,21.2
2022-08-02T08:55:33.526Z,21.2
2022-08-02T09:15:33.532Z,21.1
2022-08-02T09:20:33.546Z,21.3
2022-08-02T09:30:33.541Z,21.3
2022-08-02T09:36:06.383Z,21.3
2022-08-02T09:45:33.541Z,21.2
2022-08-02T09:50:33.539Z,21.4
2022-08-02T09:55:33.562Z,21.1
2022-08-02T10:05:37.263Z,21.1
2022-08-02T10:15:33.559Z,21.1
2022-08-02T10:25:33.544Z,21.2
2022-08-02T10:30:33.561Z,21.2
2022-08-02T10:40:33.556Z,21.1
2022-08-02T10:45:33.624Z,21.1
2022-08-02T11:05:43.235Z,21.2
2022-08-02T11:15:33.565Z,21.2
2022-08-02T11:26:00.936Z,21.3
2022-08-02T11:30:33.572Z,21.2
2022-08-02T11:40:35.487Z,21.3
2022-08-02T11:50:33.580Z,21.2
2022-08-02T12:00:33.573Z,21.2
2022-08-02T12:06:05.327Z,21.1
2022-08-02T12:25:35.365Z,21.4
2022-08-02T12:35:33.573Z,21.2
2022-08-02T12:40:33.575Z,21.1
2022-08-02T12:45:40.813Z,21.3
2022-08-02T12:55:59.840Z,21.3
2022-08-02T13:05:55.985Z,21.2
2022-08-02T13:15:49.297Z,21.1
2022-08-02T13:25:33.604Z,21
2022-08-02T13:40:49.228Z,21.1
2022-08-02T13:50:33.589Z,21
2022-08-02T14:00:35.387Z,21.3
2022-08-02T14:10:33.599Z,21.2
2022-08-02T14:15:33.600Z,21.4
2022-08-02T14:25:33.590Z,21.1
2022-08-02T14:35:33.602Z,21
2022-08-02T14:45:40.427Z,21
2022-08-02T15:00:38.592Z,21
2022-08-02T15:05:33.605Z,21
2022-08-02T15:10:33.616Z,21.1
2022-08-02T15:20:33.980Z,21
2022-08-02T15:30:33.609Z,21.2
2022-08-02T15:35:33.611Z,21
2022-08-02T15:40:33.624Z,21.1
2022-08-02T15:50:33.630Z,21.1
2022-08-02T16:00:33.614Z,21.2
2022-08-02T16:20:33.642Z,21.2
2022-08-02T16:30:33.637Z,21.2
2022-08-02T16:35:33.645Z,21.1
2022-08-02T16:40:33.648Z,21.1
2022-08-02T16:45:33.649Z,21.1
2022-08-02T16:55:33.650Z,21.1
2022-08-02T17:05:37.820Z,21.1
2022-08-02T17:10:33.659Z,21.1
2022-08-02T17:20:33.656Z,21.1
2022-08-02T17:30:33.661Z,21.1
2022-08-02T17:35:43.409Z,21.1
2022-08-02T17:50:33.656Z,21.1
2022-08-02T17:55:33.665Z,21.1
2022-08-02T18:05:40.449Z,21.1
2022-08-02T18:15:33.682Z,21.1
2022-08-02T18:20:33.674Z,21.1
2022-08-02T18:45:42.067Z,21.1
2022-08-02T18:50:33.685Z,21.1
2022-08-02T18:55:59.943Z,21.1
2022-08-02T19:05:53.169Z,21.1
2022-08-02T19:10:33.688Z,21.1
2022-08-02T19:15:33.687Z,21.1
2022-08-02T19:20:33.687Z,21.1
2022-08-02T19:30:33.694Z,21.1
2022-08-02T19:40:33.711Z,21.1
2022-08-02T19:45:51.051Z,21
2022-08-02T19:50:33.699Z,21.1
2022-08-02T20:00:33.697Z,21
2022-08-02T20:05:33.707Z,21.1
2022-08-02T20:20:33.694Z,21.1
2022-08-02T20:25:33.708Z,21.2
2022-08-02T21:10:33.719Z,21.4
2022-08-02T21:20:33.725Z,21.4
2022-08-02T21:25:42.733Z,21.6
2022-08-02T21:35:33.743Z,21.6
2022-08-02T21:45:33.742Z,21.5
2022-08-02T21:50:33.795Z,21.4
2022-08-02T22:00:33.744Z,21.2
2022-08-02T22:05:37.427Z,21.2
2022-08-02T22:15:35.808Z,21.2
2022-08-02T22:20:33.754Z,21.2
2022-08-02T22:30:33.754Z,21.2
2022-08-02T22:35:33.771Z,21.2
2022-08-02T23:10:33.761Z,21.1
2022-08-02T23:20:33.754Z,21.1
2022-08-02T23:25:33.768Z,21.1
2022-08-02T23:30:33.770Z,21.1
2022-08-02T23:40:40.388Z,21.1
2022-08-02T23:50:33.857Z,21.1
2022-08-02T23:55:33.786Z,21.2
